sensor_id;sensor_type;location;lat;lon;timestamp;P1;durP1;ratioP1;P2;durP2;ratioP2
15385;SDS011;7791;47.246;9.648;2023-02-15T00:02:03;104.77;;;35.17;;
15385;SDS011;7791;47.246;9.648;2023-02-15T00:04:29;96.80;;;32.97;;
15385;SDS011;7791;47.246;9.648;2023-02-15T00:06:55;87.17;;;32.60;;
15385;SDS011;7791;47.246;9.648;2023-02-15T00:09:20;86.13;;;32.17;;
15385;SDS011;7791;47.246;9.648;2023-02-15T00:11:46;91.83;;;34.17;;
15385;SDS011;7791;47.246;9.648;2023-02-15T00:14:13;87.70;;;32.13;;
15385;SDS011;7791;47.246;9.648;2023-02-15T00:16:42;86.87;;;32.17;;
15385;SDS011;7791;47.246;9.648;2023-02-15T00:19:09;89.80;;;33.53;;
15385;SDS011;7791;47.246;9.648;2023-02-15T00:21:37;83.53;;;31.43;;
15385;SDS011;7791;47.246;9.648;2023-02-15T00:24:04;90.87;;;32.70;;
15385;SDS011;7791;47.246;9.648;2023-02-15T00:26:31;85.47;;;32.93;;
15385;SDS011;7791;47.246;9.648;2023-02-15T00:28:58;91.73;;;32.60;;
15385;SDS011;7791;47.246;9.648;2023-02-15T00:31:24;93.17;;;32.43;;
15385;SDS011;7791;47.246;9.648;2023-02-15T00:33:51;85.40;;;32.30;;
15385;SDS011;7791;47.246;9.648;2023-02-15T00:36:17;96.80;;;33.93;;
15385;SDS011;7791;47.246;9.648;2023-02-15T00:38:43;92.60;;;33.27;;
15385;SDS011;7791;47.246;9.648;2023-02-15T00:41:09;100.47;;;34.97;;
15385;SDS011;7791;47.246;9.648;2023-02-15T00:43:34;93.40;;;35.80;;
15385;SDS011;7791;47.246;9.648;2023-02-15T00:46:01;93.40;;;33.00;;
15385;SDS011;7791;47.246;9.648;2023-02-15T00:48:27;88.67;;;33.13;;
15385;SDS011;7791;47.246;9.648;2023-02-15T00:50:54;85.47;;;32.57;;
15385;SDS011;7791;47.246;9.648;2023-02-15T00:53:21;89.53;;;31.53;;
15385;SDS011;7791;47.246;9.648;2023-02-15T00:55:47;83.90;;;32.13;;
15385;SDS011;7791;47.246;9.648;2023-02-15T00:58:13;77.47;;;30.40;;
15385;SDS011;7791;47.246;9.648;2023-02-15T01:00:41;76.00;;;30.90;;
15385;SDS011;7791;47.246;9.648;2023-02-15T01:03:09;84.73;;;31.17;;
15385;SDS011;7791;47.246;9.648;2023-02-15T01:05:35;83.33;;;31.60;;
15385;SDS011;7791;47.246;9.648;2023-02-15T01:08:02;75.60;;;31.00;;
15385;SDS011;7791;47.246;9.648;2023-02-15T01:10:27;81.07;;;31.57;;
15385;SDS011;7791;47.246;9.648;2023-02-15T01:12:54;74.90;;;29.37;;
15385;SDS011;7791;47.246;9.648;2023-02-15T01:15:20;79.60;;;31.50;;
15385;SDS011;7791;47.246;9.648;2023-02-15T01:17:46;76.87;;;30.23;;
15385;SDS011;7791;47.246;9.648;2023-02-15T01:20:11;85.90;;;30.60;;
15385;SDS011;7791;47.246;9.648;2023-02-15T01:22:37;86.33;;;30.77;;
15385;SDS011;7791;47.246;9.648;2023-02-15T01:25:05;86.17;;;32.57;;
15385;SDS011;7791;47.246;9.648;2023-02-15T01:27:31;76.83;;;29.63;;
15385;SDS011;7791;47.246;9.648;2023-02-15T01:29:56;80.13;;;30.80;;
15385;SDS011;7791;47.246;9.648;2023-02-15T01:32:22;79.07;;;29.77;;
15385;SDS011;7791;47.246;9.648;2023-02-15T01:34:48;80.80;;;30.17;;
15385;SDS011;7791;47.246;9.648;2023-02-15T01:40:18;76.03;;;29.60;;
15385;SDS011;7791;47.246;9.648;2023-02-15T01:42:44;79.53;;;28.53;;
15385;SDS011;7791;47.246;9.648;2023-02-15T01:45:14;73.73;;;28.13;;
15385;SDS011;7791;47.246;9.648;2023-02-15T01:47:45;83.07;;;30.20;;
15385;SDS011;7791;47.246;9.648;2023-02-15T01:50:15;78.43;;;30.57;;
15385;SDS011;7791;47.246;9.648;2023-02-15T01:52:55;81.10;;;30.30;;
15385;SDS011;7791;47.246;9.648;2023-02-15T01:55:30;92.10;;;32.27;;
15385;SDS011;7791;47.246;9.648;2023-02-15T01:58:01;85.27;;;33.60;;
15385;SDS011;7791;47.246;9.648;2023-02-15T02:00:27;88.73;;;32.80;;
15385;SDS011;7791;47.246;9.648;2023-02-15T02:02:54;78.57;;;30.87;;
15385;SDS011;7791;47.246;9.648;2023-02-15T02:05:21;75.37;;;29.90;;
15385;SDS011;7791;47.246;9.648;2023-02-15T02:07:48;73.27;;;28.27;;
15385;SDS011;7791;47.246;9.648;2023-02-15T02:10:17;67.23;;;26.70;;
15385;SDS011;7791;47.246;9.648;2023-02-15T02:12:46;59.00;;;26.10;;
15385;SDS011;7791;47.246;9.648;2023-02-15T02:15:14;66.83;;;26.90;;
15385;SDS011;7791;47.246;9.648;2023-02-15T02:17:42;69.93;;;26.90;;
15385;SDS011;7791;47.246;9.648;2023-02-15T02:20:26;67.33;;;25.83;;
15385;SDS011;7791;47.246;9.648;2023-02-15T02:26:16;60.83;;;26.03;;
15385;SDS011;7791;47.246;9.648;2023-02-15T02:29:30;68.60;;;26.90;;
15385;SDS011;7791;47.246;9.648;2023-02-15T02:32:18;71.77;;;26.97;;
15385;SDS011;7791;47.246;9.648;2023-02-15T02:35:04;73.57;;;27.80;;
15385;SDS011;7791;47.246;9.648;2023-02-15T02:38:00;70.40;;;27.00;;
15385;SDS011;7791;47.246;9.648;2023-02-15T02:40:35;66.63;;;26.40;;
15385;SDS011;7791;47.246;9.648;2023-02-15T02:43:10;63.63;;;26.33;;
15385;SDS011;7791;47.246;9.648;2023-02-15T02:45:40;68.80;;;27.10;;
15385;SDS011;7791;47.246;9.648;2023-02-15T02:48:12;69.83;;;26.27;;
15385;SDS011;7791;47.246;9.648;2023-02-15T02:50:42;67.80;;;26.43;;
15385;SDS011;7791;47.246;9.648;2023-02-15T02:53:28;55.60;;;25.70;;
15385;SDS011;7791;47.246;9.648;2023-02-15T02:55:56;61.93;;;25.33;;
15385;SDS011;7791;47.246;9.648;2023-02-15T02:58:24;67.87;;;25.97;;
15385;SDS011;7791;47.246;9.648;2023-02-15T03:00:57;53.00;;;24.73;;
15385;SDS011;7791;47.246;9.648;2023-02-15T03:03:27;59.40;;;25.57;;
15385;SDS011;7791;47.246;9.648;2023-02-15T03:05:58;57.37;;;25.17;;
15385;SDS011;7791;47.246;9.648;2023-02-15T03:08:28;52.60;;;23.83;;
15385;SDS011;7791;47.246;9.648;2023-02-15T03:11:01;52.20;;;22.93;;
15385;SDS011;7791;47.246;9.648;2023-02-15T03:13:28;53.40;;;24.27;;
15385;SDS011;7791;47.246;9.648;2023-02-15T03:15:54;58.17;;;24.47;;
15385;SDS011;7791;47.246;9.648;2023-02-15T03:18:22;55.23;;;24.33;;
15385;SDS011;7791;47.246;9.648;2023-02-15T03:20:51;53.83;;;23.20;;
15385;SDS011;7791;47.246;9.648;2023-02-15T03:23:20;64.40;;;24.67;;
15385;SDS011;7791;47.246;9.648;2023-02-15T03:25:48;53.27;;;24.23;;
15385;SDS011;7791;47.246;9.648;2023-02-15T03:28:18;55.87;;;24.33;;
15385;SDS011;7791;47.246;9.648;2023-02-15T03:30:48;51.33;;;22.23;;
15385;SDS011;7791;47.246;9.648;2023-02-15T03:33:19;67.57;;;24.40;;
15385;SDS011;7791;47.246;9.648;2023-02-15T03:35:47;51.67;;;23.60;;
15385;SDS011;7791;47.246;9.648;2023-02-15T03:38:17;52.30;;;22.40;;
15385;SDS011;7791;47.246;9.648;2023-02-15T03:40:50;57.97;;;22.33;;
15385;SDS011;7791;47.246;9.648;2023-02-15T03:43:22;53.20;;;23.27;;
15385;SDS011;7791;47.246;9.648;2023-02-15T03:45:55;52.73;;;23.30;;
15385;SDS011;7791;47.246;9.648;2023-02-15T03:48:25;48.37;;;22.90;;
15385;SDS011;7791;47.246;9.648;2023-02-15T03:50:57;46.43;;;21.90;;
15385;SDS011;7791;47.246;9.648;2023-02-15T03:53:27;49.00;;;22.00;;
15385;SDS011;7791;47.246;9.648;2023-02-15T03:55:53;49.00;;;22.87;;
15385;SDS011;7791;47.246;9.648;2023-02-15T03:58:20;48.57;;;22.23;;
15385;SDS011;7791;47.246;9.648;2023-02-15T04:00:47;51.00;;;22.33;;
15385;SDS011;7791;47.246;9.648;2023-02-15T04:03:22;48.33;;;22.97;;
15385;SDS011;7791;47.246;9.648;2023-02-15T04:05:53;48.80;;;21.47;;
15385;SDS011;7791;47.246;9.648;2023-02-15T04:08:19;48.40;;;22.03;;
15385;SDS011;7791;47.246;9.648;2023-02-15T04:10:46;54.87;;;22.20;;
15385;SDS011;7791;47.246;9.648;2023-02-15T04:13:12;51.23;;;21.67;;
15385;SDS011;7791;47.246;9.648;2023-02-15T04:15:37;51.70;;;22.70;;
15385;SDS011;7791;47.246;9.648;2023-02-15T04:18:03;53.57;;;22.37;;
15385;SDS011;7791;47.246;9.648;2023-02-15T04:20:30;49.07;;;22.17;;
15385;SDS011;7791;47.246;9.648;2023-02-15T04:22:55;51.37;;;21.73;;
15385;SDS011;7791;47.246;9.648;2023-02-15T04:25:21;53.37;;;23.43;;
15385;SDS011;7791;47.246;9.648;2023-02-15T04:27:49;53.07;;;22.20;;
15385;SDS011;7791;47.246;9.648;2023-02-15T04:30:16;66.10;;;23.43;;
15385;SDS011;7791;47.246;9.648;2023-02-15T04:32:43;57.60;;;23.50;;
15385;SDS011;7791;47.246;9.648;2023-02-15T04:35:09;55.33;;;22.63;;
15385;SDS011;7791;47.246;9.648;2023-02-15T04:37:35;47.97;;;22.20;;
15385;SDS011;7791;47.246;9.648;2023-02-15T04:40:01;44.07;;;20.77;;
15385;SDS011;7791;47.246;9.648;2023-02-15T04:42:27;50.33;;;22.13;;
15385;SDS011;7791;47.246;9.648;2023-02-15T04:44:54;49.20;;;21.97;;
15385;SDS011;7791;47.246;9.648;2023-02-15T04:47:20;43.47;;;20.33;;
15385;SDS011;7791;47.246;9.648;2023-02-15T04:49:46;51.13;;;21.17;;
15385;SDS011;7791;47.246;9.648;2023-02-15T04:52:11;54.37;;;22.67;;
15385;SDS011;7791;47.246;9.648;2023-02-15T04:54:37;69.93;;;26.20;;
15385;SDS011;7791;47.246;9.648;2023-02-15T04:57:03;97.23;;;29.10;;
15385;SDS011;7791;47.246;9.648;2023-02-15T04:59:29;138.30;;;27.53;;
15385;SDS011;7791;47.246;9.648;2023-02-15T05:01:56;65.87;;;23.90;;
15385;SDS011;7791;47.246;9.648;2023-02-15T05:04:22;100.43;;;25.17;;
15385;SDS011;7791;47.246;9.648;2023-02-15T05:06:47;116.03;;;24.73;;
15385;SDS011;7791;47.246;9.648;2023-02-15T05:09:14;107.37;;;22.60;;
15385;SDS011;7791;47.246;9.648;2023-02-15T05:11:40;58.77;;;22.23;;
15385;SDS011;7791;47.246;9.648;2023-02-15T05:14:06;54.40;;;22.57;;
15385;SDS011;7791;47.246;9.648;2023-02-15T05:16:32;64.73;;;23.77;;
15385;SDS011;7791;47.246;9.648;2023-02-15T05:18:59;53.77;;;23.33;;
15385;SDS011;7791;47.246;9.648;2023-02-15T05:21:25;72.30;;;22.27;;
15385;SDS011;7791;47.246;9.648;2023-02-15T05:23:51;60.73;;;23.87;;
15385;SDS011;7791;47.246;9.648;2023-02-15T05:26:17;76.87;;;23.07;;
15385;SDS011;7791;47.246;9.648;2023-02-15T05:28:47;50.03;;;21.43;;
15385;SDS011;7791;47.246;9.648;2023-02-15T05:31:13;56.70;;;24.03;;
15385;SDS011;7791;47.246;9.648;2023-02-15T05:33:41;67.07;;;26.00;;
15385;SDS011;7791;47.246;9.648;2023-02-15T05:36:08;86.87;;;27.67;;
15385;SDS011;7791;47.246;9.648;2023-02-15T05:38:34;71.17;;;27.23;;
15385;SDS011;7791;47.246;9.648;2023-02-15T05:41:00;56.17;;;24.67;;
15385;SDS011;7791;47.246;9.648;2023-02-15T05:43:25;59.77;;;24.87;;
15385;SDS011;7791;47.246;9.648;2023-02-15T05:45:52;59.80;;;25.53;;
15385;SDS011;7791;47.246;9.648;2023-02-15T05:48:19;57.57;;;25.17;;
15385;SDS011;7791;47.246;9.648;2023-02-15T05:50:55;59.10;;;24.33;;
15385;SDS011;7791;47.246;9.648;2023-02-15T05:53:23;57.40;;;23.07;;
15385;SDS011;7791;47.246;9.648;2023-02-15T05:55:49;56.90;;;24.13;;
15385;SDS011;7791;47.246;9.648;2023-02-15T05:58:15;56.43;;;23.50;;
15385;SDS011;7791;47.246;9.648;2023-02-15T06:00:40;50.53;;;22.83;;
15385;SDS011;7791;47.246;9.648;2023-02-15T06:03:06;51.93;;;21.93;;
15385;SDS011;7791;47.246;9.648;2023-02-15T06:05:32;56.60;;;24.10;;
15385;SDS011;7791;47.246;9.648;2023-02-15T06:07:57;60.23;;;23.17;;
15385;SDS011;7791;47.246;9.648;2023-02-15T06:10:24;74.87;;;24.33;;
15385;SDS011;7791;47.246;9.648;2023-02-15T06:12:50;71.23;;;25.10;;
15385;SDS011;7791;47.246;9.648;2023-02-15T06:15:16;67.50;;;25.63;;
15385;SDS011;7791;47.246;9.648;2023-02-15T06:17:42;62.50;;;23.70;;
15385;SDS011;7791;47.246;9.648;2023-02-15T06:20:08;83.27;;;23.23;;
15385;SDS011;7791;47.246;9.648;2023-02-15T06:22:35;94.73;;;24.13;;
15385;SDS011;7791;47.246;9.648;2023-02-15T06:25:00;80.57;;;22.60;;
15385;SDS011;7791;47.246;9.648;2023-02-15T06:27:28;53.40;;;21.03;;
15385;SDS011;7791;47.246;9.648;2023-02-15T06:29:53;78.17;;;20.43;;
15385;SDS011;7791;47.246;9.648;2023-02-15T06:32:19;62.43;;;20.70;;
15385;SDS011;7791;47.246;9.648;2023-02-15T06:34:45;64.60;;;20.63;;
15385;SDS011;7791;47.246;9.648;2023-02-15T06:37:10;43.10;;;19.67;;
15385;SDS011;7791;47.246;9.648;2023-02-15T06:39:36;48.73;;;22.47;;
15385;SDS011;7791;47.246;9.648;2023-02-15T06:42:02;49.10;;;22.87;;
15385;SDS011;7791;47.246;9.648;2023-02-15T06:44:31;47.07;;;21.47;;
15385;SDS011;7791;47.246;9.648;2023-02-15T06:46:57;50.37;;;21.77;;
15385;SDS011;7791;47.246;9.648;2023-02-15T06:49:22;45.47;;;20.73;;
15385;SDS011;7791;47.246;9.648;2023-02-15T06:51:48;45.17;;;21.33;;
15385;SDS011;7791;47.246;9.648;2023-02-15T06:54:26;45.47;;;21.27;;
15385;SDS011;7791;47.246;9.648;2023-02-15T06:56:52;44.30;;;21.27;;
15385;SDS011;7791;47.246;9.648;2023-02-15T06:59:17;44.77;;;21.07;;
15385;SDS011;7791;47.246;9.648;2023-02-15T07:01:44;46.60;;;20.77;;
15385;SDS011;7791;47.246;9.648;2023-02-15T07:04:10;40.43;;;20.23;;
15385;SDS011;7791;47.246;9.648;2023-02-15T07:06:37;44.70;;;21.57;;
15385;SDS011;7791;47.246;9.648;2023-02-15T07:09:03;52.70;;;25.27;;
15385;SDS011;7791;47.246;9.648;2023-02-15T07:11:39;51.00;;;23.63;;
15385;SDS011;7791;47.246;9.648;2023-02-15T07:14:05;44.80;;;21.70;;
15385;SDS011;7791;47.246;9.648;2023-02-15T07:16:31;46.03;;;22.33;;
15385;SDS011;7791;47.246;9.648;2023-02-15T07:18:58;45.57;;;22.03;;
15385;SDS011;7791;47.246;9.648;2023-02-15T07:21:24;43.53;;;21.37;;
15385;SDS011;7791;47.246;9.648;2023-02-15T07:23:50;42.27;;;20.60;;
15385;SDS011;7791;47.246;9.648;2023-02-15T07:29:12;51.17;;;23.00;;
15385;SDS011;7791;47.246;9.648;2023-02-15T07:31:38;52.33;;;23.13;;
15385;SDS011;7791;47.246;9.648;2023-02-15T07:34:06;46.90;;;22.90;;
15385;SDS011;7791;47.246;9.648;2023-02-15T07:36:32;48.57;;;22.80;;
15385;SDS011;7791;47.246;9.648;2023-02-15T07:38:57;51.07;;;24.07;;
15385;SDS011;7791;47.246;9.648;2023-02-15T07:41:23;46.37;;;22.33;;
15385;SDS011;7791;47.246;9.648;2023-02-15T07:43:49;48.33;;;22.17;;
15385;SDS011;7791;47.246;9.648;2023-02-15T07:46:15;46.63;;;23.00;;
15385;SDS011;7791;47.246;9.648;2023-02-15T07:48:41;58.57;;;29.60;;
15385;SDS011;7791;47.246;9.648;2023-02-15T07:51:10;77.20;;;36.53;;
15385;SDS011;7791;47.246;9.648;2023-02-15T07:53:37;74.03;;;33.30;;
15385;SDS011;7791;47.246;9.648;2023-02-15T07:56:04;364.20;;;50.77;;
15385;SDS011;7791;47.246;9.648;2023-02-15T07:58:31;87.77;;;39.20;;
15385;SDS011;7791;47.246;9.648;2023-02-15T08:00:57;168.83;;;41.27;;
15385;SDS011;7791;47.246;9.648;2023-02-15T08:03:23;59.87;;;28.83;;
15385;SDS011;7791;47.246;9.648;2023-02-15T08:05:49;61.00;;;30.10;;
15385;SDS011;7791;47.246;9.648;2023-02-15T08:08:16;72.43;;;34.90;;
15385;SDS011;7791;47.246;9.648;2023-02-15T08:10:42;69.70;;;37.47;;
15385;SDS011;7791;47.246;9.648;2023-02-15T08:13:07;45.50;;;25.40;;
15385;SDS011;7791;47.246;9.648;2023-02-15T08:15:33;43.87;;;24.70;;
15385;SDS011;7791;47.246;9.648;2023-02-15T08:17:59;43.60;;;24.70;;
15385;SDS011;7791;47.246;9.648;2023-02-15T08:20:24;43.70;;;24.47;;
15385;SDS011;7791;47.246;9.648;2023-02-15T08:22:50;39.63;;;22.57;;
15385;SDS011;7791;47.246;9.648;2023-02-15T08:25:17;36.97;;;20.90;;
15385;SDS011;7791;47.246;9.648;2023-02-15T08:27:43;35.40;;;20.73;;
15385;SDS011;7791;47.246;9.648;2023-02-15T08:30:09;34.53;;;18.00;;
15385;SDS011;7791;47.246;9.648;2023-02-15T08:32:35;34.77;;;18.37;;
15385;SDS011;7791;47.246;9.648;2023-02-15T08:35:02;35.67;;;19.80;;
15385;SDS011;7791;47.246;9.648;2023-02-15T08:37:28;35.90;;;20.70;;
15385;SDS011;7791;47.246;9.648;2023-02-15T08:39:53;34.70;;;20.20;;
15385;SDS011;7791;47.246;9.648;2023-02-15T08:42:21;36.57;;;20.20;;
15385;SDS011;7791;47.246;9.648;2023-02-15T08:44:46;31.60;;;19.70;;
15385;SDS011;7791;47.246;9.648;2023-02-15T08:47:12;29.30;;;17.40;;
15385;SDS011;7791;47.246;9.648;2023-02-15T08:49:38;26.60;;;16.90;;
15385;SDS011;7791;47.246;9.648;2023-02-15T08:52:04;26.17;;;17.03;;
15385;SDS011;7791;47.246;9.648;2023-02-15T08:54:29;24.17;;;15.90;;
15385;SDS011;7791;47.246;9.648;2023-02-15T08:56:55;24.10;;;15.60;;
15385;SDS011;7791;47.246;9.648;2023-02-15T08:59:22;22.83;;;14.57;;
15385;SDS011;7791;47.246;9.648;2023-02-15T09:01:49;25.93;;;15.40;;
15385;SDS011;7791;47.246;9.648;2023-02-15T09:04:16;24.20;;;15.30;;
15385;SDS011;7791;47.246;9.648;2023-02-15T09:06:42;26.57;;;16.80;;
15385;SDS011;7791;47.246;9.648;2023-02-15T09:09:09;25.37;;;15.97;;
15385;SDS011;7791;47.246;9.648;2023-02-15T09:11:36;20.83;;;12.97;;
15385;SDS011;7791;47.246;9.648;2023-02-15T09:14:04;23.13;;;13.47;;
15385;SDS011;7791;47.246;9.648;2023-02-15T09:16:33;25.13;;;15.43;;
15385;SDS011;7791;47.246;9.648;2023-02-15T09:19:00;22.97;;;15.23;;
15385;SDS011;7791;47.246;9.648;2023-02-15T09:21:27;24.50;;;15.47;;
15385;SDS011;7791;47.246;9.648;2023-02-15T09:23:55;24.30;;;14.97;;
15385;SDS011;7791;47.246;9.648;2023-02-15T09:26:22;24.53;;;14.30;;
15385;SDS011;7791;47.246;9.648;2023-02-15T09:28:51;21.63;;;14.10;;
15385;SDS011;7791;47.246;9.648;2023-02-15T09:31:18;20.67;;;14.03;;
15385;SDS011;7791;47.246;9.648;2023-02-15T09:33:47;25.73;;;15.83;;
15385;SDS011;7791;47.246;9.648;2023-02-15T09:36:14;23.27;;;15.20;;
15385;SDS011;7791;47.246;9.648;2023-02-15T09:38:41;24.70;;;15.83;;
15385;SDS011;7791;47.246;9.648;2023-02-15T09:41:21;23.23;;;15.33;;
15385;SDS011;7791;47.246;9.648;2023-02-15T09:44:03;25.70;;;16.47;;
15385;SDS011;7791;47.246;9.648;2023-02-15T09:46:41;24.73;;;17.07;;
15385;SDS011;7791;47.246;9.648;2023-02-15T09:49:22;26.57;;;17.57;;
15385;SDS011;7791;47.246;9.648;2023-02-15T09:52:04;25.97;;;17.97;;
15385;SDS011;7791;47.246;9.648;2023-02-15T09:54:47;25.13;;;17.37;;
15385;SDS011;7791;47.246;9.648;2023-02-15T09:57:31;26.00;;;17.33;;
15385;SDS011;7791;47.246;9.648;2023-02-15T10:00:04;25.87;;;17.50;;
15385;SDS011;7791;47.246;9.648;2023-02-15T10:02:38;25.00;;;16.47;;
15385;SDS011;7791;47.246;9.648;2023-02-15T10:05:20;25.97;;;16.27;;
15385;SDS011;7791;47.246;9.648;2023-02-15T10:07:57;23.23;;;15.93;;
15385;SDS011;7791;47.246;9.648;2023-02-15T10:10:46;24.53;;;15.90;;
15385;SDS011;7791;47.246;9.648;2023-02-15T10:13:21;22.20;;;14.47;;
15385;SDS011;7791;47.246;9.648;2023-02-15T10:16:02;28.23;;;15.03;;
15385;SDS011;7791;47.246;9.648;2023-02-15T10:18:40;21.70;;;14.90;;
15385;SDS011;7791;47.246;9.648;2023-02-15T10:21:19;25.70;;;15.23;;
15385;SDS011;7791;47.246;9.648;2023-02-15T10:24:02;21.20;;;13.87;;
15385;SDS011;7791;47.246;9.648;2023-02-15T10:27:01;21.70;;;13.13;;
15385;SDS011;7791;47.246;9.648;2023-02-15T10:29:35;21.97;;;13.93;;
15385;SDS011;7791;47.246;9.648;2023-02-15T10:32:05;18.87;;;12.83;;
15385;SDS011;7791;47.246;9.648;2023-02-15T10:34:39;20.30;;;13.70;;
15385;SDS011;7791;47.246;9.648;2023-02-15T10:37:17;21.00;;;14.07;;
15385;SDS011;7791;47.246;9.648;2023-02-15T10:40:04;23.10;;;13.70;;
15385;SDS011;7791;47.246;9.648;2023-02-15T10:51:45;23.03;;;14.50;;
15385;SDS011;7791;47.246;9.648;2023-02-15T10:54:24;21.90;;;14.73;;
15385;SDS011;7791;47.246;9.648;2023-02-15T10:56:59;24.97;;;15.57;;
15385;SDS011;7791;47.246;9.648;2023-02-15T10:59:36;26.53;;;15.40;;
15385;SDS011;7791;47.246;9.648;2023-02-15T11:02:11;26.50;;;15.30;;
15385;SDS011;7791;47.246;9.648;2023-02-15T11:04:47;25.43;;;16.10;;
15385;SDS011;7791;47.246;9.648;2023-02-15T11:07:18;22.70;;;15.03;;
15385;SDS011;7791;47.246;9.648;2023-02-15T11:09:50;23.53;;;13.90;;
15385;SDS011;7791;47.246;9.648;2023-02-15T11:18:25;25.40;;;13.67;;
15385;SDS011;7791;47.246;9.648;2023-02-15T11:20:57;24.40;;;15.27;;
15385;SDS011;7791;47.246;9.648;2023-02-15T11:23:27;22.70;;;14.90;;
15385;SDS011;7791;47.246;9.648;2023-02-15T11:25:56;25.50;;;15.10;;
15385;SDS011;7791;47.246;9.648;2023-02-15T11:31:26;26.33;;;15.47;;
15385;SDS011;7791;47.246;9.648;2023-02-15T11:34:03;22.27;;;14.43;;
15385;SDS011;7791;47.246;9.648;2023-02-15T11:36:37;20.10;;;12.13;;
15385;SDS011;7791;47.246;9.648;2023-02-15T11:39:08;21.00;;;12.70;;
15385;SDS011;7791;47.246;9.648;2023-02-15T11:41:38;19.23;;;12.77;;
15385;SDS011;7791;47.246;9.648;2023-02-15T11:50:17;28.43;;;15.10;;
15385;SDS011;7791;47.246;9.648;2023-02-15T11:52:46;22.27;;;14.53;;
15385;SDS011;7791;47.246;9.648;2023-02-15T11:55:14;23.13;;;14.30;;
15385;SDS011;7791;47.246;9.648;2023-02-15T11:58:01;21.93;;;12.50;;
15385;SDS011;7791;47.246;9.648;2023-02-15T12:00:32;21.20;;;11.73;;
15385;SDS011;7791;47.246;9.648;2023-02-15T12:03:00;21.43;;;11.90;;
15385;SDS011;7791;47.246;9.648;2023-02-15T12:05:32;20.30;;;11.53;;
15385;SDS011;7791;47.246;9.648;2023-02-15T12:08:02;15.23;;;10.20;;
15385;SDS011;7791;47.246;9.648;2023-02-15T12:10:36;13.43;;;9.60;;
15385;SDS011;7791;47.246;9.648;2023-02-15T12:16:11;11.27;;;6.70;;
15385;SDS011;7791;47.246;9.648;2023-02-15T12:18:37;15.93;;;10.00;;
15385;SDS011;7791;47.246;9.648;2023-02-15T12:21:06;18.40;;;12.17;;
15385;SDS011;7791;47.246;9.648;2023-02-15T12:23:34;17.30;;;11.97;;
15385;SDS011;7791;47.246;9.648;2023-02-15T12:26:06;23.50;;;13.40;;
15385;SDS011;7791;47.246;9.648;2023-02-15T12:28:32;22.73;;;13.40;;
15385;SDS011;7791;47.246;9.648;2023-02-15T12:31:01;24.57;;;13.03;;
15385;SDS011;7791;47.246;9.648;2023-02-15T12:33:34;19.37;;;12.60;;
15385;SDS011;7791;47.246;9.648;2023-02-15T12:36:06;19.10;;;12.80;;
15385;SDS011;7791;47.246;9.648;2023-02-15T12:38:37;22.17;;;13.73;;
15385;SDS011;7791;47.246;9.648;2023-02-15T12:41:04;21.43;;;13.53;;
15385;SDS011;7791;47.246;9.648;2023-02-15T12:43:45;22.33;;;12.67;;
15385;SDS011;7791;47.246;9.648;2023-02-15T12:46:14;21.57;;;13.73;;
15385;SDS011;7791;47.246;9.648;2023-02-15T12:48:47;20.10;;;13.33;;
15385;SDS011;7791;47.246;9.648;2023-02-15T12:51:31;22.73;;;14.87;;
15385;SDS011;7791;47.246;9.648;2023-02-15T12:54:15;23.17;;;14.30;;
15385;SDS011;7791;47.246;9.648;2023-02-15T12:56:50;34.63;;;15.87;;
15385;SDS011;7791;47.246;9.648;2023-02-15T12:59:16;25.83;;;15.13;;
15385;SDS011;7791;47.246;9.648;2023-02-15T13:01:44;19.03;;;11.80;;
15385;SDS011;7791;47.246;9.648;2023-02-15T13:04:17;19.67;;;13.13;;
15385;SDS011;7791;47.246;9.648;2023-02-15T13:06:49;23.83;;;12.67;;
15385;SDS011;7791;47.246;9.648;2023-02-15T13:09:18;24.00;;;12.87;;
15385;SDS011;7791;47.246;9.648;2023-02-15T13:11:45;26.00;;;15.13;;
15385;SDS011;7791;47.246;9.648;2023-02-15T13:20:31;19.97;;;12.83;;
15385;SDS011;7791;47.246;9.648;2023-02-15T13:22:59;24.93;;;15.00;;
15385;SDS011;7791;47.246;9.648;2023-02-15T13:25:30;23.97;;;14.93;;
15385;SDS011;7791;47.246;9.648;2023-02-15T13:28:00;21.93;;;14.73;;
15385;SDS011;7791;47.246;9.648;2023-02-15T13:30:28;26.23;;;15.10;;
15385;SDS011;7791;47.246;9.648;2023-02-15T13:32:58;24.03;;;14.60;;
15385;SDS011;7791;47.246;9.648;2023-02-15T13:35:36;23.37;;;15.53;;
15385;SDS011;7791;47.246;9.648;2023-02-15T13:38:16;26.67;;;16.63;;
15385;SDS011;7791;47.246;9.648;2023-02-15T13:40:58;28.10;;;17.00;;
15385;SDS011;7791;47.246;9.648;2023-02-15T13:43:44;26.63;;;16.37;;
15385;SDS011;7791;47.246;9.648;2023-02-15T13:46:46;25.30;;;15.37;;
15385;SDS011;7791;47.246;9.648;2023-02-15T13:49:27;23.87;;;14.30;;
15385;SDS011;7791;47.246;9.648;2023-02-15T13:52:05;25.13;;;14.53;;
15385;SDS011;7791;47.246;9.648;2023-02-15T13:54:54;25.43;;;15.03;;
15385;SDS011;7791;47.246;9.648;2023-02-15T14:00:57;22.73;;;13.73;;
15385;SDS011;7791;47.246;9.648;2023-02-15T14:03:41;22.47;;;14.77;;
15385;SDS011;7791;47.246;9.648;2023-02-15T14:06:34;23.17;;;14.20;;
15385;SDS011;7791;47.246;9.648;2023-02-15T14:09:15;25.57;;;14.93;;
15385;SDS011;7791;47.246;9.648;2023-02-15T14:11:56;25.77;;;14.17;;
15385;SDS011;7791;47.246;9.648;2023-02-15T14:14:43;25.30;;;15.63;;
15385;SDS011;7791;47.246;9.648;2023-02-15T14:17:36;28.27;;;16.97;;
15385;SDS011;7791;47.246;9.648;2023-02-15T14:20:15;26.40;;;15.93;;
15385;SDS011;7791;47.246;9.648;2023-02-15T14:22:49;30.27;;;16.50;;
15385;SDS011;7791;47.246;9.648;2023-02-15T14:25:25;30.60;;;16.67;;
15385;SDS011;7791;47.246;9.648;2023-02-15T14:28:03;32.40;;;18.00;;
15385;SDS011;7791;47.246;9.648;2023-02-15T14:30:36;32.57;;;18.73;;
15385;SDS011;7791;47.246;9.648;2023-02-15T14:33:05;32.73;;;18.27;;
15385;SDS011;7791;47.246;9.648;2023-02-15T14:35:32;34.37;;;18.97;;
15385;SDS011;7791;47.246;9.648;2023-02-15T14:38:01;32.83;;;18.90;;
15385;SDS011;7791;47.246;9.648;2023-02-15T14:40:36;33.23;;;20.67;;
15385;SDS011;7791;47.246;9.648;2023-02-15T14:43:07;33.07;;;19.27;;
15385;SDS011;7791;47.246;9.648;2023-02-15T14:45:55;32.97;;;19.40;;
15385;SDS011;7791;47.246;9.648;2023-02-15T14:48:28;35.77;;;19.70;;
15385;SDS011;7791;47.246;9.648;2023-02-15T14:50:56;34.40;;;19.17;;
15385;SDS011;7791;47.246;9.648;2023-02-15T14:53:25;31.67;;;18.80;;
15385;SDS011;7791;47.246;9.648;2023-02-15T14:56:11;32.20;;;18.47;;
15385;SDS011;7791;47.246;9.648;2023-02-15T14:58:54;35.93;;;18.97;;
15385;SDS011;7791;47.246;9.648;2023-02-15T15:01:24;32.77;;;18.00;;
15385;SDS011;7791;47.246;9.648;2023-02-15T15:03:53;33.50;;;18.07;;
15385;SDS011;7791;47.246;9.648;2023-02-15T15:06:23;38.37;;;19.30;;
15385;SDS011;7791;47.246;9.648;2023-02-15T15:08:51;32.30;;;18.70;;
15385;SDS011;7791;47.246;9.648;2023-02-15T15:11:44;58.40;;;21.57;;
15385;SDS011;7791;47.246;9.648;2023-02-15T15:14:36;37.43;;;18.93;;
15385;SDS011;7791;47.246;9.648;2023-02-15T15:17:04;48.10;;;21.43;;
15385;SDS011;7791;47.246;9.648;2023-02-15T15:22:36;35.30;;;18.03;;
15385;SDS011;7791;47.246;9.648;2023-02-15T15:25:02;30.43;;;18.57;;
15385;SDS011;7791;47.246;9.648;2023-02-15T15:27:40;36.13;;;18.93;;
15385;SDS011;7791;47.246;9.648;2023-02-15T15:33:13;29.83;;;18.13;;
15385;SDS011;7791;47.246;9.648;2023-02-15T15:39:21;35.50;;;19.13;;
15385;SDS011;7791;47.246;9.648;2023-02-15T15:42:10;36.97;;;19.73;;
15385;SDS011;7791;47.246;9.648;2023-02-15T15:47:37;34.83;;;19.07;;
15385;SDS011;7791;47.246;9.648;2023-02-15T15:50:14;35.80;;;19.93;;
15385;SDS011;7791;47.246;9.648;2023-02-15T15:52:44;40.80;;;19.67;;